createdAt,value
2022-10-29T00:01:06.426Z,99052.05
2022-10-29T00:03:40.718Z,99049.14
2022-10-29T00:06:10.832Z,99046.91
2022-10-29T00:08:39.586Z,99049.06
2022-10-29T00:11:15.365Z,99050.86
2022-10-29T00:13:44.048Z,99058.21
2022-10-29T00:16:13.552Z,99059.80
2022-10-29T00:18:41.519Z,99065.38
2022-10-29T00:21:12.036Z,99067.05
2022-10-29T00:23:40.631Z,99067.02
2022-10-29T00:26:08.503Z,99062.76
2022-10-29T00:28:36.978Z,99067.59
2022-10-29T00:31:06.194Z,99066.78
2022-10-29T00:33:34.463Z,99067.27
2022-10-29T00:36:03.751Z,99069.80
2022-10-29T00:38:32.845Z,99066.58
2022-10-29T00:41:01.227Z,99065.78
2022-10-29T00:43:29.721Z,99065.31
2022-10-29T00:46:00.104Z,99062.91
2022-10-29T00:48:29.977Z,99062.98
2022-10-29T00:50:59.144Z,99061.09
2022-10-29T00:53:29.253Z,99057.33
2022-10-29T00:55:58.248Z,99053.98
2022-10-29T00:58:26.760Z,99061.30
2022-10-29T01:00:54.695Z,99058.21
2022-10-29T01:03:22.765Z,99054.15
2022-10-29T01:05:51.965Z,99048.26
2022-10-29T01:08:20.804Z,99043.48
2022-10-29T01:11:00.879Z,99042.88
2022-10-29T01:13:34.910Z,99043.91
2022-10-29T01:16:11.994Z,99045.63
2022-10-29T01:18:45.692Z,99043.90
2022-10-29T01:21:19.991Z,99036.50
2022-10-29T01:23:51.053Z,99034.91
2022-10-29T01:26:31.219Z,99032.48
2022-10-29T01:28:59.286Z,99034.61
2022-10-29T01:31:34.075Z,99036.44
2022-10-29T01:34:14.670Z,99034.08
2022-10-29T01:36:58.816Z,99033.34
2022-10-29T01:39:33.171Z,99030.38
2022-10-29T01:42:05.095Z,99027.04
2022-10-29T01:44:32.968Z,99022.56
2022-10-29T01:47:02.232Z,99022.27
2022-10-29T01:49:36.189Z,99021.64
2022-10-29T01:52:05.698Z,99022.67
2022-10-29T01:54:33.753Z,99027.98
2022-10-29T01:57:01.547Z,99027.25
2022-10-29T01:59:51.295Z,99022.77
2022-10-29T02:02:21.242Z,99019.52
2022-10-29T02:05:06.779Z,99014.73
2022-10-29T02:07:37.985Z,99012.98
2022-10-29T02:10:32.482Z,99010.27
2022-10-29T02:13:01.300Z,99008.50
2022-10-29T02:15:29.168Z,99006.55
2022-10-29T02:18:01.306Z,99007.04
2022-10-29T02:20:29.691Z,99002.58
2022-10-29T02:22:57.677Z,98997.92
2022-10-29T02:25:25.629Z,98994.82
2022-10-29T02:27:54.070Z,98996.72
2022-10-29T02:30:22.385Z,99000.04
2022-10-29T02:32:50.473Z,98996.98
2022-10-29T02:35:18.320Z,98996.67
2022-10-29T02:37:46.181Z,98998.14
2022-10-29T02:40:14.373Z,98993.45
2022-10-29T02:42:42.193Z,98995.77
2022-10-29T02:45:10.348Z,98997.21
2022-10-29T02:47:38.411Z,98994.53
2022-10-29T02:50:06.760Z,98997.29
2022-10-29T02:52:34.625Z,98999.15
2022-10-29T02:55:02.422Z,99007.24
2022-10-29T02:57:30.457Z,99007.33
2022-10-29T02:59:58.634Z,99010.02
2022-10-29T03:02:27.069Z,99009.92
2022-10-29T03:04:55.253Z,99012.31
2022-10-29T03:07:23.357Z,99011.84
2022-10-29T03:09:51.225Z,99011.54
2022-10-29T03:12:19.047Z,99004.52
2022-10-29T03:14:47.259Z,99004.83
2022-10-29T03:17:15.133Z,99003.75
2022-10-29T03:19:43.158Z,98998.81
2022-10-29T03:22:10.973Z,98999.25
2022-10-29T03:24:38.827Z,98999.61
2022-10-29T03:27:07.214Z,98998.44
2022-10-29T03:29:35.152Z,98991.46
2022-10-29T03:32:03.139Z,98992.23
2022-10-29T03:34:31.313Z,98998.15
2022-10-29T03:36:59.382Z,98998.99
2022-10-29T03:39:27.184Z,98999.04
2022-10-29T03:41:55.213Z,99000.02
2022-10-29T03:44:23.016Z,98995.48
2022-10-29T03:46:51.111Z,98991.40
2022-10-29T03:49:19.145Z,98993.88
2022-10-29T03:51:47.038Z,98993.00
2022-10-29T03:54:15.165Z,98988.84
2022-10-29T03:56:43.024Z,98992.52
2022-10-29T04:01:44.036Z,98990.39
2022-10-29T04:04:12.251Z,98985.13
2022-10-29T04:06:40.173Z,98988.38
2022-10-29T04:09:08.087Z,98991.27
2022-10-29T04:11:35.954Z,98995.82
2022-10-29T04:14:03.919Z,98997.79
2022-10-29T04:16:31.767Z,99000.28
2022-10-29T04:18:59.655Z,98996.55
2022-10-29T04:29:52.309Z,99006.98
2022-10-29T04:32:20.113Z,99012.33
2022-10-29T04:34:47.993Z,99014.59
2022-10-29T04:37:15.825Z,99011.61
2022-10-29T04:39:43.808Z,99009.20
2022-10-29T04:42:11.777Z,99011.69
2022-10-29T04:44:39.640Z,99010.19
2022-10-29T04:47:07.397Z,99013.44
2022-10-29T04:49:35.228Z,99018.23
2022-10-29T04:52:03.337Z,99025.15
2022-10-29T04:54:31.151Z,99020.77
2022-10-29T04:56:59.587Z,99023.57
2022-10-29T04:59:27.705Z,99030.84
2022-10-29T05:01:55.731Z,99028.90
2022-10-29T05:04:23.793Z,99024.09
2022-10-29T05:06:51.633Z,99024.39
2022-10-29T05:09:20.048Z,99021.84
2022-10-29T05:11:48.174Z,99021.35
2022-10-29T05:14:15.990Z,99023.59
2022-10-29T05:16:44.259Z,99019.95
2022-10-29T05:19:12.233Z,99021.94
2022-10-29T05:21:40.314Z,99027.23
2022-10-29T05:24:08.458Z,99029.16
2022-10-29T05:26:36.694Z,99034.58
2022-10-29T05:29:04.681Z,99034.98
2022-10-29T05:31:32.570Z,99039.16
2022-10-29T05:34:00.396Z,99041.73
2022-10-29T05:36:28.314Z,99040.10
2022-10-29T05:38:56.164Z,99041.92
2022-10-29T05:41:24.134Z,99044.81
2022-10-29T05:43:52.005Z,99044.55
2022-10-29T05:46:19.963Z,99043.28
2022-10-29T05:48:47.846Z,99041.34
2022-10-29T05:51:15.878Z,99041.48
2022-10-29T05:53:44.073Z,99043.19
2022-10-29T05:56:12.111Z,99040.84
2022-10-29T05:58:40.184Z,99040.13
2022-10-29T06:01:12.070Z,99042.29
2022-10-29T06:03:40.398Z,99039.44
2022-10-29T06:06:08.573Z,99036.16
2022-10-29T06:08:36.396Z,99031.81
2022-10-29T06:11:04.990Z,99033.61
2022-10-29T06:13:33.351Z,99033.90
2022-10-29T06:16:01.829Z,99033.29
2022-10-29T06:18:29.757Z,99033.58
2022-10-29T06:20:58.536Z,99035.39
2022-10-29T06:23:27.270Z,99037.52
2022-10-29T06:25:55.336Z,99035.61
2022-10-29T06:28:23.408Z,99035.02
2022-10-29T06:30:52.295Z,99031.95
2022-10-29T06:33:20.785Z,99036.39
2022-10-29T06:35:48.957Z,99032.95
2022-10-29T06:38:17.334Z,99029.61
2022-10-29T06:40:52.075Z,99032.73
2022-10-29T06:43:20.028Z,99033.60
2022-10-29T06:45:48.712Z,99036.45
2022-10-29T06:48:19.142Z,99040.20
2022-10-29T06:50:50.610Z,99034.42
2022-10-29T06:53:19.297Z,99037.04
2022-10-29T06:55:47.430Z,99043.66
2022-10-29T06:58:17.050Z,99046.49
2022-10-29T07:00:45.340Z,99050.36
2022-10-29T07:03:14.418Z,99055.55
2022-10-29T07:05:42.899Z,99057.16
2022-10-29T07:08:11.280Z,99056.87
2022-10-29T07:10:40.000Z,99055.09
2022-10-29T07:13:08.440Z,99056.77
2022-10-29T07:15:36.489Z,99059.14
2022-10-29T07:18:05.831Z,99054.13
2022-10-29T07:20:40.963Z,99056.52
2022-10-29T07:23:09.671Z,99052.61
2022-10-29T07:25:38.732Z,99050.23
2022-10-29T07:28:17.647Z,99048.59
2022-10-29T07:30:45.546Z,99053.23
2022-10-29T07:33:13.858Z,99051.75
2022-10-29T07:35:42.203Z,99052.52
2022-10-29T07:38:11.644Z,99048.59
2022-10-29T07:40:40.768Z,99047.77
2022-10-29T07:43:08.967Z,99045.23
2022-10-29T07:45:37.539Z,99045.89
2022-10-29T07:48:07.906Z,99044.46
2022-10-29T07:50:36.842Z,99042.47
2022-10-29T07:53:05.801Z,99043.92
2022-10-29T07:55:34.033Z,99043.15
2022-10-29T07:58:03.411Z,99036.65
2022-10-29T08:00:32.503Z,99032.77
2022-10-29T08:03:00.649Z,99034.28
2022-10-29T08:05:29.977Z,99027.70
2022-10-29T08:07:58.436Z,99022.86
2022-10-29T08:10:27.348Z,99022.71
2022-10-29T08:12:56.737Z,99020.55
2022-10-29T08:15:25.885Z,99016.48
2022-10-29T08:17:54.619Z,99013.02
2022-10-29T08:20:23.458Z,99011.67
2022-10-29T08:22:51.470Z,99009.81
2022-10-29T08:25:19.940Z,99009.79
2022-10-29T08:27:58.182Z,99004.45
2022-10-29T08:30:26.217Z,99000.88
2022-10-29T08:32:54.832Z,99004.13
2022-10-29T08:35:23.727Z,98995.98
2022-10-29T08:37:52.059Z,98996.52
2022-10-29T08:40:22.638Z,98989.84
2022-10-29T08:42:57.183Z,98985.58
2022-10-29T08:45:36.385Z,98986.11
2022-10-29T08:48:07.360Z,98988.15
2022-10-29T08:50:41.368Z,98984.73
2022-10-29T08:53:24.588Z,98984.02
2022-10-29T08:55:54.677Z,98983.70
2022-10-29T08:58:36.283Z,98984.19
2022-10-29T09:01:10.100Z,98981.63
2022-10-29T09:03:38.869Z,98982.92
2022-10-29T09:06:11.951Z,98978.48
2022-10-29T09:08:52.511Z,98981.73
2022-10-29T09:11:20.489Z,98978.68
2022-10-29T09:14:07.958Z,98980.77
2022-10-29T09:16:56.354Z,98977.04
2022-10-29T09:19:27.092Z,98978.48
2022-10-29T09:22:09.024Z,98975.55
2022-10-29T09:24:40.606Z,98967.94
2022-10-29T09:27:16.203Z,98965.48
2022-10-29T09:30:10.483Z,98963.24
2022-10-29T09:32:44.438Z,98961.10
2022-10-29T09:35:16.964Z,98964.93
2022-10-29T09:37:50.046Z,98967.58
2022-10-29T09:40:20.979Z,98962.60
2022-10-29T09:42:49.042Z,98959.93
2022-10-29T09:45:18.663Z,98956.56
2022-10-29T09:47:46.533Z,98953.09
2022-10-29T09:50:20.808Z,98943.48
2022-10-29T09:52:49.835Z,98944.54
2022-10-29T09:55:20.364Z,98945.49
2022-10-29T09:57:49.808Z,98944.58
2022-10-29T10:00:19.803Z,98944.64
2022-10-29T10:03:03.327Z,98942.14
2022-10-29T10:05:32.964Z,98941.55
2022-10-29T10:08:09.815Z,98943.25
2022-10-29T10:10:57.907Z,98945.65
2022-10-29T10:13:38.568Z,98943.41
2022-10-29T10:16:06.971Z,98941.11
2022-10-29T10:21:24.120Z,98941.45
2022-10-29T10:23:53.020Z,98940.44
2022-10-29T10:26:26.927Z,98938.46
2022-10-29T10:29:03.843Z,98931.58
2022-10-29T10:31:31.719Z,98928.41
2022-10-29T10:33:59.709Z,98921.84
2022-10-29T10:36:29.755Z,98917.91
2022-10-29T10:38:59.007Z,98915.15
2022-10-29T10:41:32.869Z,98915.57
2022-10-29T10:44:05.065Z,98911.81
2022-10-29T10:46:39.853Z,98910.48
2022-10-29T10:49:18.369Z,98907.16
2022-10-29T10:51:48.935Z,98898.77
2022-10-29T10:54:22.930Z,98894.32
2022-10-29T10:57:19.561Z,98891.23
2022-10-29T10:59:47.537Z,98887.80
2022-10-29T11:02:23.659Z,98882.64
2022-10-29T11:04:59.090Z,98883.16
2022-10-29T11:07:34.360Z,98877.64
2022-10-29T11:10:05.093Z,98870.60
2022-10-29T11:12:37.073Z,98873.14
2022-10-29T11:15:11.307Z,98873.55
2022-10-29T11:17:52.931Z,98869.72
2022-10-29T11:20:31.893Z,98863.90
2022-10-29T11:23:11.739Z,98856.91
2022-10-29T11:25:43.321Z,98851.52
2022-10-29T11:28:26.311Z,98855.67
2022-10-29T11:31:00.398Z,98854.91
2022-10-29T11:33:41.682Z,98859.99
2022-10-29T11:36:15.385Z,98860.06
2022-10-29T11:38:48.298Z,98850.19
2022-10-29T11:41:30.013Z,98848.59
2022-10-29T11:43:57.982Z,98850.41
2022-10-29T11:46:44.863Z,98850.83
2022-10-29T11:49:15.872Z,98851.40
2022-10-29T11:51:52.201Z,98846.36
2022-10-29T11:54:33.443Z,98840.11
2022-10-29T11:57:09.410Z,98838.45
2022-10-29T11:59:43.705Z,98842.17
2022-10-29T12:02:20.294Z,98840.27
2022-10-29T12:05:06.974Z,98835.47
2022-10-29T12:07:54.244Z,98830.91
2022-10-29T12:10:41.512Z,98829.37
2022-10-29T12:13:17.635Z,98825.30
2022-10-29T12:15:51.306Z,98822.75
2022-10-29T12:18:28.797Z,98823.80
2022-10-29T12:21:03.181Z,98820.52
2022-10-29T12:23:46.545Z,98818.05
2022-10-29T12:26:32.742Z,98817.40
2022-10-29T12:29:06.134Z,98818.27
2022-10-29T12:31:49.362Z,98815.08
2022-10-29T12:34:17.170Z,98809.72
2022-10-29T12:36:59.838Z,98810.63
2022-10-29T12:39:40.711Z,98806.67
2022-10-29T12:42:18.033Z,98805.85
2022-10-29T12:44:45.810Z,98808.45
2022-10-29T12:47:34.312Z,98803.52
2022-10-29T12:50:21.331Z,98799.57
2022-10-29T12:52:55.924Z,98804.23
2022-10-29T12:55:24.460Z,98801.55
2022-10-29T12:57:52.518Z,98795.83
2022-10-29T13:00:23.340Z,98793.39
2022-10-29T13:02:52.235Z,98781.73
2022-10-29T13:05:36.179Z,98778.59
2022-10-29T13:08:04.046Z,98780.13
2022-10-29T13:10:31.907Z,98777.14
2022-10-29T13:12:59.898Z,98775.81
2022-10-29T13:15:34.572Z,98777.72
2022-10-29T13:18:07.038Z,98775.71
2022-10-29T13:20:35.023Z,98771.86
2022-10-29T13:23:05.384Z,98764.98
2022-10-29T13:25:42.461Z,98761.58
2022-10-29T13:28:10.414Z,98756.50
2022-10-29T13:30:39.929Z,98756.15
2022-10-29T13:33:26.425Z,98757.29
2022-10-29T13:35:54.594Z,98752.15
2022-10-29T13:38:58.232Z,98749.84
2022-10-29T13:41:42.920Z,98741.77
2022-10-29T13:44:11.434Z,98740.71
2022-10-29T13:46:49.070Z,98742.87
2022-10-29T13:49:34.938Z,98744.63
2022-10-29T13:52:11.658Z,98746.00
2022-10-29T13:54:41.399Z,98745.89
2022-10-29T13:57:12.118Z,98747.34
2022-10-29T13:59:43.086Z,98747.36
2022-10-29T14:02:29.893Z,98746.36
2022-10-29T14:05:24.457Z,98744.59
2022-10-29T14:08:11.611Z,98747.46
2022-10-29T14:10:39.575Z,98742.10
2022-10-29T14:13:23.663Z,98737.52
2022-10-29T14:16:22.315Z,98734.79
2022-10-29T14:18:51.283Z,98732.55
2022-10-29T14:21:22.902Z,98730.61
2022-10-29T14:24:08.082Z,98728.30
2022-10-29T14:26:40.605Z,98730.61
2022-10-29T14:29:17.998Z,98722.05
2022-10-29T14:31:46.507Z,98720.63
2022-10-29T14:34:26.328Z,98721.77
2022-10-29T14:36:56.515Z,98716.92
2022-10-29T14:39:32.640Z,98720.38
2022-10-29T14:42:16.805Z,98722.17
2022-10-29T14:44:48.721Z,98721.04
2022-10-29T14:47:19.490Z,98718.71
2022-10-29T14:49:48.366Z,98722.98
2022-10-29T14:52:31.981Z,98721.38
2022-10-29T14:55:06.862Z,98727.36
2022-10-29T14:57:40.101Z,98730.20
2022-10-29T15:00:08.387Z,98731.58
2022-10-29T15:02:39.267Z,98737.41
2022-10-29T15:05:25.883Z,98742.86
2022-10-29T15:08:24.479Z,98743.08
2022-10-29T15:10:53.945Z,98745.90
2022-10-29T15:13:28.015Z,98743.92
2022-10-29T15:15:58.609Z,98745.40
2022-10-29T15:18:27.126Z,98747.68
2022-10-29T15:20:55.394Z,98745.17
2022-10-29T15:23:28.080Z,98746.92
2022-10-29T15:26:04.108Z,98746.80
2022-10-29T15:28:37.817Z,98744.86
2022-10-29T15:31:06.586Z,98746.80
2022-10-29T15:33:35.843Z,98750.61
2022-10-29T15:36:05.126Z,98753.87
2022-10-29T15:38:34.532Z,98752.45
2022-10-29T15:41:08.236Z,98752.23
2022-10-29T15:43:48.489Z,98756.64
2022-10-29T15:46:23.527Z,98763.16
2022-10-29T15:48:52.482Z,98767.36
2022-10-29T15:51:26.322Z,98765.08
2022-10-29T15:53:58.858Z,98765.93
2022-10-29T15:56:26.972Z,98764.55
2022-10-29T15:58:56.911Z,98765.61
2022-10-29T16:01:24.984Z,98767.80
2022-10-29T16:03:53.216Z,98763.39
2022-10-29T16:06:21.558Z,98760.20
2022-10-29T16:08:51.393Z,98758.59
2022-10-29T16:11:22.916Z,98765.35
2022-10-29T16:13:54.668Z,98770.27
2022-10-29T16:16:25.234Z,98771.35
2022-10-29T16:18:53.553Z,98774.63
2022-10-29T16:21:22.713Z,98773.84
2022-10-29T16:23:51.620Z,98775.27
2022-10-29T16:26:21.122Z,98776.69
2022-10-29T16:28:49.304Z,98777.39
2022-10-29T16:31:22.079Z,98779.00
2022-10-29T16:33:51.790Z,98774.21
2022-10-29T16:36:19.830Z,98775.71
2022-10-29T16:38:47.970Z,98780.81
2022-10-29T16:41:16.750Z,98777.61
2022-10-29T16:43:45.026Z,98778.25
2022-10-29T16:46:13.482Z,98778.30
2022-10-29T16:48:41.385Z,98789.76
2022-10-29T16:51:09.623Z,98794.41
2022-10-29T16:53:37.431Z,98790.11
2022-10-29T16:56:05.730Z,98785.04
2022-10-29T16:58:34.298Z,98782.07
2022-10-29T17:01:03.510Z,98775.13
2022-10-29T17:03:33.397Z,98770.76
2022-10-29T17:06:06.024Z,98771.26
2022-10-29T17:08:34.784Z,98768.27
2022-10-29T17:11:04.319Z,98768.61
2022-10-29T17:13:33.768Z,98775.55
2022-10-29T17:16:09.402Z,98774.09
2022-10-29T17:18:37.434Z,98774.03
2022-10-29T17:21:05.615Z,98774.73
2022-10-29T17:23:33.786Z,98769.61
2022-10-29T17:26:01.974Z,98764.19
2022-10-29T17:28:30.336Z,98764.58
2022-10-29T17:30:58.482Z,98768.02
2022-10-29T17:33:26.474Z,98764.46
2022-10-29T17:36:01.786Z,98759.98
2022-10-29T17:38:30.199Z,98752.27
2022-10-29T17:40:58.015Z,98751.39
2022-10-29T17:43:25.926Z,98749.92
2022-10-29T17:45:53.897Z,98748.31
2022-10-29T17:48:24.121Z,98745.96
2022-10-29T17:50:53.723Z,98742.95
2022-10-29T17:53:22.695Z,98741.59
2022-10-29T17:55:51.196Z,98736.30
2022-10-29T17:58:19.695Z,98733.47
2022-10-29T18:00:48.644Z,98729.03
2022-10-29T18:03:16.737Z,98721.39
2022-10-29T18:05:44.843Z,98721.60
2022-10-29T18:08:12.741Z,98722.80
2022-10-29T18:10:41.237Z,98719.83
2022-10-29T18:13:09.224Z,98721.56
2022-10-29T18:15:37.806Z,98725.77
2022-10-29T18:18:05.835Z,98733.30
2022-10-29T18:20:34.051Z,98734.09
2022-10-29T18:23:02.496Z,98733.25
2022-10-29T18:25:30.786Z,98730.77
2022-10-29T18:27:58.854Z,98729.41
2022-10-29T18:30:26.950Z,98729.71
2022-10-29T18:32:55.464Z,98728.10
2022-10-29T18:35:23.789Z,98726.08
2022-10-29T18:37:51.746Z,98725.45
2022-10-29T18:40:19.629Z,98725.74
2022-10-29T18:42:47.710Z,98726.52
2022-10-29T18:45:15.679Z,98727.70
2022-10-29T18:47:43.751Z,98724.70
2022-10-29T18:50:11.589Z,98722.63
2022-10-29T18:52:39.994Z,98727.35
2022-10-29T18:55:08.441Z,98732.44
2022-10-29T18:57:36.441Z,98734.76
2022-10-29T19:00:04.856Z,98730.14
2022-10-29T19:02:32.753Z,98725.20
2022-10-29T19:05:00.660Z,98720.88
2022-10-29T19:07:28.621Z,98710.36
2022-10-29T19:09:56.570Z,98709.23
2022-10-29T19:12:24.369Z,98711.42
2022-10-29T19:14:53.655Z,98708.41
2022-10-29T19:17:21.518Z,98707.93
2022-10-29T19:19:49.699Z,98704.04
2022-10-29T19:22:17.797Z,98700.23
2022-10-29T19:24:45.663Z,98693.82
2022-10-29T19:27:13.461Z,98694.00
2022-10-29T19:29:41.564Z,98688.62
2022-10-29T19:32:09.725Z,98688.91
2022-10-29T19:37:06.699Z,98691.92
2022-10-29T19:39:34.461Z,98693.80
2022-10-29T19:42:02.637Z,98696.66
2022-10-29T19:44:30.707Z,98691.59
2022-10-29T19:46:58.778Z,98686.25
2022-10-29T19:49:27.465Z,98686.33
2022-10-29T19:51:57.376Z,98687.70
2022-10-29T19:54:25.640Z,98689.49
2022-10-29T19:56:53.924Z,98694.93
2022-10-29T19:59:21.705Z,98694.20
2022-10-29T20:01:49.879Z,98696.40
2022-10-29T20:04:18.162Z,98696.75
2022-10-29T20:06:46.177Z,98697.56
2022-10-29T20:09:14.213Z,98698.61
2022-10-29T20:11:42.097Z,98702.86
2022-10-29T20:14:10.084Z,98703.45
2022-10-29T20:16:38.294Z,98705.70
2022-10-29T20:19:06.637Z,98706.11
2022-10-29T20:21:34.737Z,98708.80
2022-10-29T20:24:02.695Z,98709.11
2022-10-29T20:26:31.393Z,98704.78
2022-10-29T20:28:59.971Z,98697.96
2022-10-29T20:31:31.084Z,98698.23
2022-10-29T20:34:01.199Z,98699.83
2022-10-29T20:36:31.834Z,98704.27
2022-10-29T20:39:00.253Z,98701.89
2022-10-29T20:41:29.540Z,98701.19
2022-10-29T20:43:58.862Z,98705.34
2022-10-29T20:46:27.325Z,98705.95
2022-10-29T20:48:55.375Z,98704.06
2022-10-29T20:51:23.662Z,98706.33
2022-10-29T20:53:52.043Z,98704.02
2022-10-29T20:56:20.523Z,98704.48
2022-10-29T20:58:48.579Z,98707.86
2022-10-29T21:01:18.180Z,98707.78
2022-10-29T21:03:47.806Z,98709.12
2022-10-29T21:06:17.489Z,98702.58
2022-10-29T21:08:46.308Z,98703.19
2022-10-29T21:11:15.401Z,98698.00
2022-10-29T21:13:43.502Z,98700.17
2022-10-29T21:16:19.089Z,98699.25
2022-10-29T21:18:49.676Z,98696.77
2022-10-29T21:21:18.943Z,98692.10
2022-10-29T21:23:47.129Z,98690.90
2022-10-29T21:26:16.212Z,98689.66
2022-10-29T21:28:44.591Z,98692.21
2022-10-29T21:31:12.946Z,98690.70
2022-10-29T21:33:41.207Z,98690.29
2022-10-29T21:36:12.254Z,98695.07
2022-10-29T21:38:40.352Z,98698.93
2022-10-29T21:41:08.267Z,98689.95
2022-10-29T21:43:37.398Z,98684.64
2022-10-29T21:46:05.411Z,98682.23
2022-10-29T21:48:33.557Z,98683.30
2022-10-29T21:51:03.050Z,98681.65
2022-10-29T21:53:31.233Z,98682.40
2022-10-29T21:56:00.325Z,98681.99
2022-10-29T21:58:28.983Z,98675.75
2022-10-29T22:01:04.635Z,98672.89
2022-10-29T22:03:33.369Z,98669.08
2022-10-29T22:06:15.219Z,98663.86
2022-10-29T22:08:43.858Z,98667.65
2022-10-29T22:11:12.741Z,98672.20
2022-10-29T22:13:40.770Z,98676.50
2022-10-29T22:16:09.260Z,98676.58
2022-10-29T22:18:37.685Z,98675.78
2022-10-29T22:21:11.838Z,98672.67
2022-10-29T22:23:44.555Z,98672.58
2022-10-29T22:26:13.599Z,98672.83
2022-10-29T22:28:41.905Z,98670.23
2022-10-29T22:31:09.870Z,98671.73
2022-10-29T22:33:37.942Z,98669.83
2022-10-29T22:36:09.498Z,98671.86
2022-10-29T22:38:37.974Z,98669.91
2022-10-29T22:41:26.066Z,98667.14
2022-10-29T22:43:54.585Z,98664.17
2022-10-29T22:46:22.893Z,98664.30
2022-10-29T22:48:51.144Z,98662.95
2022-10-29T22:51:21.626Z,98668.56
2022-10-29T22:53:50.260Z,98667.09
2022-10-29T22:56:18.136Z,98662.00
2022-10-29T22:58:46.606Z,98657.70
2022-10-29T23:01:15.906Z,98658.40
2022-10-29T23:03:44.278Z,98660.98
2022-10-29T23:06:13.925Z,98661.75
2022-10-29T23:08:44.228Z,98660.77
2022-10-29T23:11:19.595Z,98657.81
2022-10-29T23:13:53.047Z,98653.71
2022-10-29T23:16:21.460Z,98647.05
2022-10-29T23:18:50.463Z,98646.70
2022-10-29T23:21:19.119Z,98642.77
2022-10-29T23:23:47.692Z,98641.62
2022-10-29T23:26:16.894Z,98641.95
2022-10-29T23:28:45.399Z,98637.73
2022-10-29T23:31:17.535Z,98634.29
2022-10-29T23:33:46.560Z,98631.00
2022-10-29T23:36:15.311Z,98623.02
2022-10-29T23:38:43.633Z,98622.72
2022-10-29T23:41:12.244Z,98619.73
2022-10-29T23:43:40.722Z,98615.73
2022-10-29T23:46:08.615Z,98622.59
2022-10-29T23:48:37.502Z,98620.86
2022-10-29T23:51:06.297Z,98610.50
2022-10-29T23:53:34.246Z,98616.80
2022-10-29T23:56:02.130Z,98617.17
2022-10-29T23:58:30.315Z,98619.38
